sensor_id;sensor_type;location;lat;lon;timestamp;temperature;humidity
52575;DHT22;38468;48.114;-1.684;2022-11-20T00:01:51;9.00;74.10
52575;DHT22;38468;48.114;-1.684;2022-11-20T00:03:53;8.90;74.30
52575;DHT22;38468;48.114;-1.684;2022-11-20T00:05:54;8.90;74.50
52575;DHT22;38468;48.114;-1.684;2022-11-20T00:07:54;8.90;74.50
52575;DHT22;38468;48.114;-1.684;2022-11-20T00:09:55;8.90;74.60
52575;DHT22;38468;48.114;-1.684;2022-11-20T00:11:56;8.90;74.60
52575;DHT22;38468;48.114;-1.684;2022-11-20T00:13:58;9.00;74.60
52575;DHT22;38468;48.114;-1.684;2022-11-20T00:16:01;8.90;74.60
52575;DHT22;38468;48.114;-1.684;2022-11-20T00:18:02;8.90;74.60
52575;DHT22;38468;48.114;-1.684;2022-11-20T00:20:03;8.90;74.80
52575;DHT22;38468;48.114;-1.684;2022-11-20T00:22:04;8.90;75.00
52575;DHT22;38468;48.114;-1.684;2022-11-20T00:24:07;8.90;75.10
52575;DHT22;38468;48.114;-1.684;2022-11-20T00:26:12;8.90;75.00
52575;DHT22;38468;48.114;-1.684;2022-11-20T00:28:13;8.90;74.80
52575;DHT22;38468;48.114;-1.684;2022-11-20T00:30:14;8.90;75.10
52575;DHT22;38468;48.114;-1.684;2022-11-20T00:32:16;8.90;75.10
52575;DHT22;38468;48.114;-1.684;2022-11-20T00:34:17;9.00;74.90
52575;DHT22;38468;48.114;-1.684;2022-11-20T00:36:20;9.00;74.90
52575;DHT22;38468;48.114;-1.684;2022-11-20T00:38:21;8.90;75.00
52575;DHT22;38468;48.114;-1.684;2022-11-20T00:40:23;8.90;75.40
52575;DHT22;38468;48.114;-1.684;2022-11-20T00:42:24;9.00;75.20
52575;DHT22;38468;48.114;-1.684;2022-11-20T00:44:25;9.00;75.10
52575;DHT22;38468;48.114;-1.684;2022-11-20T00:46:27;8.90;75.20
52575;DHT22;38468;48.114;-1.684;2022-11-20T00:48:28;8.90;75.30
52575;DHT22;38468;48.114;-1.684;2022-11-20T00:50:30;9.00;75.30
52575;DHT22;38468;48.114;-1.684;2022-11-20T00:52:31;8.90;75.30
52575;DHT22;38468;48.114;-1.684;2022-11-20T00:54:32;9.00;75.50
52575;DHT22;38468;48.114;-1.684;2022-11-20T00:56:34;9.00;75.40
52575;DHT22;38468;48.114;-1.684;2022-11-20T00:58:37;8.90;75.50
52575;DHT22;38468;48.114;-1.684;2022-11-20T01:00:38;8.90;75.80
52575;DHT22;38468;48.114;-1.684;2022-11-20T01:02:39;8.90;76.10
52575;DHT22;38468;48.114;-1.684;2022-11-20T01:04:40;8.90;76.00
52575;DHT22;38468;48.114;-1.684;2022-11-20T01:06:44;8.90;76.00
52575;DHT22;38468;48.114;-1.684;2022-11-20T01:08:45;8.90;76.10
52575;DHT22;38468;48.114;-1.684;2022-11-20T01:10:46;8.90;76.20
52575;DHT22;38468;48.114;-1.684;2022-11-20T01:12:47;8.90;76.50
52575;DHT22;38468;48.114;-1.684;2022-11-20T01:15:08;8.90;76.60
52575;DHT22;38468;48.114;-1.684;2022-11-20T01:17:09;8.90;76.90
52575;DHT22;38468;48.114;-1.684;2022-11-20T01:19:15;8.80;77.60
52575;DHT22;38468;48.114;-1.684;2022-11-20T01:21:19;8.80;77.60
52575;DHT22;38468;48.114;-1.684;2022-11-20T01:23:20;8.70;78.40
52575;DHT22;38468;48.114;-1.684;2022-11-20T01:25:21;8.70;78.60
52575;DHT22;38468;48.114;-1.684;2022-11-20T01:27:21;8.70;79.00
52575;DHT22;38468;48.114;-1.684;2022-11-20T01:29:24;8.60;79.50
52575;DHT22;38468;48.114;-1.684;2022-11-20T01:33:25;8.60;80.30
52575;DHT22;38468;48.114;-1.684;2022-11-20T01:35:26;8.50;80.50
52575;DHT22;38468;48.114;-1.684;2022-11-20T01:37:27;8.50;80.80
52575;DHT22;38468;48.114;-1.684;2022-11-20T01:39:28;8.50;80.70
52575;DHT22;38468;48.114;-1.684;2022-11-20T01:41:30;8.60;80.70
52575;DHT22;38468;48.114;-1.684;2022-11-20T01:43:50;8.50;81.00
52575;DHT22;38468;48.114;-1.684;2022-11-20T01:46:03;8.60;80.80
52575;DHT22;38468;48.114;-1.684;2022-11-20T01:48:04;8.60;80.90
52575;DHT22;38468;48.114;-1.684;2022-11-20T01:50:22;8.70;80.90
52575;DHT22;38468;48.114;-1.684;2022-11-20T01:52:34;8.70;81.10
52575;DHT22;38468;48.114;-1.684;2022-11-20T01:54:45;8.60;80.90
52575;DHT22;38468;48.114;-1.684;2022-11-20T01:56:48;8.70;80.90
52575;DHT22;38468;48.114;-1.684;2022-11-20T01:58:54;8.70;81.10
52575;DHT22;38468;48.114;-1.684;2022-11-20T02:00:57;8.70;81.50
52575;DHT22;38468;48.114;-1.684;2022-11-20T02:03:01;8.70;81.50
52575;DHT22;38468;48.114;-1.684;2022-11-20T02:07:24;8.70;81.70
52575;DHT22;38468;48.114;-1.684;2022-11-20T02:09:25;8.70;81.90
52575;DHT22;38468;48.114;-1.684;2022-11-20T02:11:26;8.70;82.10
52575;DHT22;38468;48.114;-1.684;2022-11-20T02:13:26;8.70;82.30
52575;DHT22;38468;48.114;-1.684;2022-11-20T02:15:47;8.70;82.60
52575;DHT22;38468;48.114;-1.684;2022-11-20T02:17:48;8.70;82.70
52575;DHT22;38468;48.114;-1.684;2022-11-20T02:19:49;8.80;82.60
52575;DHT22;38468;48.114;-1.684;2022-11-20T02:22:14;8.80;82.60
52575;DHT22;38468;48.114;-1.684;2022-11-20T02:24:18;8.80;82.90
52575;DHT22;38468;48.114;-1.684;2022-11-20T02:26:20;8.80;83.00
52575;DHT22;38468;48.114;-1.684;2022-11-20T02:28:25;8.80;83.30
52575;DHT22;38468;48.114;-1.684;2022-11-20T02:30:25;8.80;83.50
52575;DHT22;38468;48.114;-1.684;2022-11-20T02:32:31;8.70;83.70
52575;DHT22;38468;48.114;-1.684;2022-11-20T02:34:32;8.70;84.00
52575;DHT22;38468;48.114;-1.684;2022-11-20T02:36:34;8.80;84.00
52575;DHT22;38468;48.114;-1.684;2022-11-20T02:38:36;8.90;83.80
52575;DHT22;38468;48.114;-1.684;2022-11-20T02:40:36;8.90;83.60
52575;DHT22;38468;48.114;-1.684;2022-11-20T02:42:37;8.90;83.50
52575;DHT22;38468;48.114;-1.684;2022-11-20T02:44:38;8.90;83.60
52575;DHT22;38468;48.114;-1.684;2022-11-20T02:46:39;8.90;83.80
52575;DHT22;38468;48.114;-1.684;2022-11-20T02:48:39;8.90;84.00
52575;DHT22;38468;48.114;-1.684;2022-11-20T02:50:40;8.90;84.10
52575;DHT22;38468;48.114;-1.684;2022-11-20T02:52:41;8.90;84.20
52575;DHT22;38468;48.114;-1.684;2022-11-20T02:54:41;8.90;84.30
52575;DHT22;38468;48.114;-1.684;2022-11-20T02:56:42;8.90;84.40
52575;DHT22;38468;48.114;-1.684;2022-11-20T02:58:43;8.90;84.40
52575;DHT22;38468;48.114;-1.684;2022-11-20T03:00:44;8.90;84.30
52575;DHT22;38468;48.114;-1.684;2022-11-20T03:02:45;9.00;84.30
52575;DHT22;38468;48.114;-1.684;2022-11-20T03:04:46;8.90;84.30
52575;DHT22;38468;48.114;-1.684;2022-11-20T03:06:47;8.80;84.50
52575;DHT22;38468;48.114;-1.684;2022-11-20T03:08:47;8.80;84.60
52575;DHT22;38468;48.114;-1.684;2022-11-20T03:10:48;8.80;84.60
52575;DHT22;38468;48.114;-1.684;2022-11-20T03:12:56;8.70;84.60
52575;DHT22;38468;48.114;-1.684;2022-11-20T03:14:56;8.70;84.60
52575;DHT22;38468;48.114;-1.684;2022-11-20T03:16:57;8.70;84.90
52575;DHT22;38468;48.114;-1.684;2022-11-20T03:18:58;8.70;84.90
52575;DHT22;38468;48.114;-1.684;2022-11-20T03:20:59;8.80;84.70
52575;DHT22;38468;48.114;-1.684;2022-11-20T03:23:00;8.80;84.80
52575;DHT22;38468;48.114;-1.684;2022-11-20T03:25:01;8.90;84.90
52575;DHT22;38468;48.114;-1.684;2022-11-20T03:27:02;8.80;85.10
52575;DHT22;38468;48.114;-1.684;2022-11-20T03:29:04;8.90;85.30
52575;DHT22;38468;48.114;-1.684;2022-11-20T03:31:07;8.80;85.40
52575;DHT22;38468;48.114;-1.684;2022-11-20T03:33:08;8.80;85.30
52575;DHT22;38468;48.114;-1.684;2022-11-20T03:35:09;8.90;85.20
52575;DHT22;38468;48.114;-1.684;2022-11-20T03:37:10;8.90;85.20
52575;DHT22;38468;48.114;-1.684;2022-11-20T03:39:10;8.90;85.20
52575;DHT22;38468;48.114;-1.684;2022-11-20T03:41:14;8.90;85.30
52575;DHT22;38468;48.114;-1.684;2022-11-20T03:43:15;8.90;85.40
52575;DHT22;38468;48.114;-1.684;2022-11-20T03:45:17;8.90;85.50
52575;DHT22;38468;48.114;-1.684;2022-11-20T03:47:18;8.90;85.50
52575;DHT22;38468;48.114;-1.684;2022-11-20T03:49:19;8.90;85.60
52575;DHT22;38468;48.114;-1.684;2022-11-20T03:51:24;8.90;85.70
52575;DHT22;38468;48.114;-1.684;2022-11-20T03:53:25;8.90;85.80
52575;DHT22;38468;48.114;-1.684;2022-11-20T03:55:26;8.90;85.80
52575;DHT22;38468;48.114;-1.684;2022-11-20T03:57:27;8.90;85.70
52575;DHT22;38468;48.114;-1.684;2022-11-20T03:59:27;8.90;85.80
52575;DHT22;38468;48.114;-1.684;2022-11-20T04:01:30;9.00;85.80
52575;DHT22;38468;48.114;-1.684;2022-11-20T04:03:31;8.90;85.90
52575;DHT22;38468;48.114;-1.684;2022-11-20T04:05:33;9.00;85.80
52575;DHT22;38468;48.114;-1.684;2022-11-20T04:07:34;8.90;86.00
52575;DHT22;38468;48.114;-1.684;2022-11-20T04:09:35;9.00;85.90
52575;DHT22;38468;48.114;-1.684;2022-11-20T04:11:37;9.00;86.10
52575;DHT22;38468;48.114;-1.684;2022-11-20T04:13:40;9.00;86.10
52575;DHT22;38468;48.114;-1.684;2022-11-20T04:15:41;9.10;86.00
52575;DHT22;38468;48.114;-1.684;2022-11-20T04:17:42;9.00;85.90
52575;DHT22;38468;48.114;-1.684;2022-11-20T04:19:42;9.10;86.00
52575;DHT22;38468;48.114;-1.684;2022-11-20T04:21:44;9.00;86.20
52575;DHT22;38468;48.114;-1.684;2022-11-20T04:23:45;9.10;86.20
52575;DHT22;38468;48.114;-1.684;2022-11-20T04:25:45;9.10;86.10
52575;DHT22;38468;48.114;-1.684;2022-11-20T04:27:46;9.10;86.10
52575;DHT22;38468;48.114;-1.684;2022-11-20T04:29:46;9.10;86.40
52575;DHT22;38468;48.114;-1.684;2022-11-20T04:31:47;9.10;86.40
52575;DHT22;38468;48.114;-1.684;2022-11-20T04:33:48;9.20;86.40
52575;DHT22;38468;48.114;-1.684;2022-11-20T04:35:49;9.20;86.50
52575;DHT22;38468;48.114;-1.684;2022-11-20T04:37:51;9.20;86.50
52575;DHT22;38468;48.114;-1.684;2022-11-20T04:39:52;9.20;86.50
52575;DHT22;38468;48.114;-1.684;2022-11-20T04:41:53;9.20;86.50
52575;DHT22;38468;48.114;-1.684;2022-11-20T04:44:13;9.20;86.40
52575;DHT22;38468;48.114;-1.684;2022-11-20T04:46:14;9.20;86.50
52575;DHT22;38468;48.114;-1.684;2022-11-20T04:48:15;9.20;86.60
52575;DHT22;38468;48.114;-1.684;2022-11-20T04:50:15;9.30;86.50
52575;DHT22;38468;48.114;-1.684;2022-11-20T04:52:16;9.30;86.60
52575;DHT22;38468;48.114;-1.684;2022-11-20T04:54:17;9.30;86.50
52575;DHT22;38468;48.114;-1.684;2022-11-20T04:56:17;9.20;86.60
52575;DHT22;38468;48.114;-1.684;2022-11-20T04:58:18;9.30;86.50
52575;DHT22;38468;48.114;-1.684;2022-11-20T05:00:19;9.30;86.50
52575;DHT22;38468;48.114;-1.684;2022-11-20T05:02:20;9.40;86.50
52575;DHT22;38468;48.114;-1.684;2022-11-20T05:04:21;9.30;86.50
52575;DHT22;38468;48.114;-1.684;2022-11-20T05:06:22;9.40;86.40
52575;DHT22;38468;48.114;-1.684;2022-11-20T05:08:23;9.40;86.40
52575;DHT22;38468;48.114;-1.684;2022-11-20T05:10:24;9.40;86.50
52575;DHT22;38468;48.114;-1.684;2022-11-20T05:12:25;9.30;86.50
52575;DHT22;38468;48.114;-1.684;2022-11-20T05:14:26;9.40;86.50
52575;DHT22;38468;48.114;-1.684;2022-11-20T05:16:26;9.40;86.50
52575;DHT22;38468;48.114;-1.684;2022-11-20T05:18:27;9.40;86.50
52575;DHT22;38468;48.114;-1.684;2022-11-20T05:20:28;9.40;86.60
52575;DHT22;38468;48.114;-1.684;2022-11-20T05:22:28;9.40;86.60
52575;DHT22;38468;48.114;-1.684;2022-11-20T05:24:29;9.40;86.60
52575;DHT22;38468;48.114;-1.684;2022-11-20T05:26:29;9.50;86.60
52575;DHT22;38468;48.114;-1.684;2022-11-20T05:28:31;9.50;86.60
52575;DHT22;38468;48.114;-1.684;2022-11-20T05:30:32;9.50;86.50
52575;DHT22;38468;48.114;-1.684;2022-11-20T05:32:33;9.50;86.50
52575;DHT22;38468;48.114;-1.684;2022-11-20T05:34:33;9.40;86.60
52575;DHT22;38468;48.114;-1.684;2022-11-20T05:36:34;9.50;86.70
52575;DHT22;38468;48.114;-1.684;2022-11-20T05:38:35;9.40;86.90
52575;DHT22;38468;48.114;-1.684;2022-11-20T05:40:35;9.40;87.10
52575;DHT22;38468;48.114;-1.684;2022-11-20T05:42:36;9.40;87.10
52575;DHT22;38468;48.114;-1.684;2022-11-20T05:44:37;9.40;87.00
52575;DHT22;38468;48.114;-1.684;2022-11-20T05:46:37;9.40;87.40
52575;DHT22;38468;48.114;-1.684;2022-11-20T05:48:39;9.40;87.40
52575;DHT22;38468;48.114;-1.684;2022-11-20T05:50:40;9.40;87.40
52575;DHT22;38468;48.114;-1.684;2022-11-20T05:52:41;9.50;87.20
52575;DHT22;38468;48.114;-1.684;2022-11-20T05:54:42;9.60;87.20
52575;DHT22;38468;48.114;-1.684;2022-11-20T05:56:43;9.60;87.30
52575;DHT22;38468;48.114;-1.684;2022-11-20T05:58:44;9.70;87.30
52575;DHT22;38468;48.114;-1.684;2022-11-20T06:00:44;9.70;87.10
52575;DHT22;38468;48.114;-1.684;2022-11-20T06:02:45;9.80;86.90
52575;DHT22;38468;48.114;-1.684;2022-11-20T06:04:46;9.90;86.80
52575;DHT22;38468;48.114;-1.684;2022-11-20T06:06:46;9.80;86.80
52575;DHT22;38468;48.114;-1.684;2022-11-20T06:08:47;9.90;86.80
52575;DHT22;38468;48.114;-1.684;2022-11-20T06:10:48;9.80;86.80
52575;DHT22;38468;48.114;-1.684;2022-11-20T06:12:49;9.80;86.90
52575;DHT22;38468;48.114;-1.684;2022-11-20T06:14:49;9.80;87.00
52575;DHT22;38468;48.114;-1.684;2022-11-20T06:16:50;9.80;87.10
52575;DHT22;38468;48.114;-1.684;2022-11-20T06:18:51;9.80;87.30
52575;DHT22;38468;48.114;-1.684;2022-11-20T06:20:59;9.80;87.30
52575;DHT22;38468;48.114;-1.684;2022-11-20T06:23:00;9.90;87.30
52575;DHT22;38468;48.114;-1.684;2022-11-20T06:25:01;9.90;87.20
52575;DHT22;38468;48.114;-1.684;2022-11-20T06:27:01;9.90;87.20
52575;DHT22;38468;48.114;-1.684;2022-11-20T06:29:02;9.90;87.20
52575;DHT22;38468;48.114;-1.684;2022-11-20T06:31:03;9.90;87.20
52575;DHT22;38468;48.114;-1.684;2022-11-20T06:33:04;10.00;87.20
52575;DHT22;38468;48.114;-1.684;2022-11-20T06:35:05;10.00;87.10
52575;DHT22;38468;48.114;-1.684;2022-11-20T06:37:06;10.00;87.10
52575;DHT22;38468;48.114;-1.684;2022-11-20T06:39:06;10.10;87.10
52575;DHT22;38468;48.114;-1.684;2022-11-20T06:41:11;10.00;87.10
52575;DHT22;38468;48.114;-1.684;2022-11-20T06:43:12;10.00;87.00
52575;DHT22;38468;48.114;-1.684;2022-11-20T06:45:13;10.00;87.10
52575;DHT22;38468;48.114;-1.684;2022-11-20T06:47:13;10.00;87.10
52575;DHT22;38468;48.114;-1.684;2022-11-20T06:49:14;10.00;87.10
52575;DHT22;38468;48.114;-1.684;2022-11-20T06:51:15;10.00;87.10
52575;DHT22;38468;48.114;-1.684;2022-11-20T06:53:16;10.00;87.00
52575;DHT22;38468;48.114;-1.684;2022-11-20T06:55:17;10.00;87.00
52575;DHT22;38468;48.114;-1.684;2022-11-20T06:57:18;10.00;87.00
52575;DHT22;38468;48.114;-1.684;2022-11-20T06:59:18;10.00;87.10
52575;DHT22;38468;48.114;-1.684;2022-11-20T07:01:19;10.00;87.10
52575;DHT22;38468;48.114;-1.684;2022-11-20T07:03:19;10.00;87.10
52575;DHT22;38468;48.114;-1.684;2022-11-20T07:05:20;10.00;87.10
52575;DHT22;38468;48.114;-1.684;2022-11-20T07:07:21;10.00;87.10
52575;DHT22;38468;48.114;-1.684;2022-11-20T07:09:21;10.00;87.20
52575;DHT22;38468;48.114;-1.684;2022-11-20T07:11:22;10.00;87.20
52575;DHT22;38468;48.114;-1.684;2022-11-20T07:13:23;10.00;87.20
52575;DHT22;38468;48.114;-1.684;2022-11-20T07:15:24;10.00;87.30
52575;DHT22;38468;48.114;-1.684;2022-11-20T07:17:25;10.10;87.20
52575;DHT22;38468;48.114;-1.684;2022-11-20T07:19:26;10.00;87.20
52575;DHT22;38468;48.114;-1.684;2022-11-20T07:21:27;10.00;87.20
52575;DHT22;38468;48.114;-1.684;2022-11-20T07:23:27;10.00;87.20
52575;DHT22;38468;48.114;-1.684;2022-11-20T07:25:28;10.10;87.30
52575;DHT22;38468;48.114;-1.684;2022-11-20T07:27:29;10.10;87.20
52575;DHT22;38468;48.114;-1.684;2022-11-20T07:29:30;10.00;87.20
52575;DHT22;38468;48.114;-1.684;2022-11-20T07:31:31;10.10;87.30
52575;DHT22;38468;48.114;-1.684;2022-11-20T07:33:32;10.10;87.40
52575;DHT22;38468;48.114;-1.684;2022-11-20T07:35:33;10.10;87.30
52575;DHT22;38468;48.114;-1.684;2022-11-20T07:37:36;10.10;87.30
52575;DHT22;38468;48.114;-1.684;2022-11-20T07:39:37;10.10;87.30
52575;DHT22;38468;48.114;-1.684;2022-11-20T07:41:38;10.10;87.40
52575;DHT22;38468;48.114;-1.684;2022-11-20T07:43:38;10.10;87.40
52575;DHT22;38468;48.114;-1.684;2022-11-20T07:45:39;10.20;87.40
52575;DHT22;38468;48.114;-1.684;2022-11-20T07:47:40;10.20;87.30
52575;DHT22;38468;48.114;-1.684;2022-11-20T07:49:41;10.20;87.30
52575;DHT22;38468;48.114;-1.684;2022-11-20T07:51:41;10.20;87.30
52575;DHT22;38468;48.114;-1.684;2022-11-20T07:53:42;10.30;87.20
52575;DHT22;38468;48.114;-1.684;2022-11-20T07:55:42;10.30;87.10
52575;DHT22;38468;48.114;-1.684;2022-11-20T07:57:43;10.30;87.20
52575;DHT22;38468;48.114;-1.684;2022-11-20T07:59:44;10.40;87.10
52575;DHT22;38468;48.114;-1.684;2022-11-20T08:01:46;10.40;87.10
52575;DHT22;38468;48.114;-1.684;2022-11-20T08:03:46;10.40;86.90
52575;DHT22;38468;48.114;-1.684;2022-11-20T08:05:47;10.50;86.80
52575;DHT22;38468;48.114;-1.684;2022-11-20T08:07:48;10.50;86.70
52575;DHT22;38468;48.114;-1.684;2022-11-20T08:09:49;10.40;86.70
52575;DHT22;38468;48.114;-1.684;2022-11-20T08:11:50;10.40;86.80
52575;DHT22;38468;48.114;-1.684;2022-11-20T08:14:08;10.40;86.80
52575;DHT22;38468;48.114;-1.684;2022-11-20T08:16:12;10.40;86.70
52575;DHT22;38468;48.114;-1.684;2022-11-20T08:18:12;10.40;86.70
52575;DHT22;38468;48.114;-1.684;2022-11-20T08:20:13;10.50;86.70
52575;DHT22;38468;48.114;-1.684;2022-11-20T08:22:14;10.40;86.70
52575;DHT22;38468;48.114;-1.684;2022-11-20T08:24:14;10.40;86.70
52575;DHT22;38468;48.114;-1.684;2022-11-20T08:26:15;10.40;86.80
52575;DHT22;38468;48.114;-1.684;2022-11-20T08:28:16;10.40;86.70
52575;DHT22;38468;48.114;-1.684;2022-11-20T08:30:16;10.70;86.80
52575;DHT22;38468;48.114;-1.684;2022-11-20T08:32:17;11.00;86.70
52575;DHT22;38468;48.114;-1.684;2022-11-20T08:34:18;11.70;86.10
52575;DHT22;38468;48.114;-1.684;2022-11-20T08:36:19;12.10;84.40
52575;DHT22;38468;48.114;-1.684;2022-11-20T08:38:19;12.40;83.80
52575;DHT22;38468;48.114;-1.684;2022-11-20T08:40:20;12.70;82.70
52575;DHT22;38468;48.114;-1.684;2022-11-20T08:42:21;12.90;81.60
52575;DHT22;38468;48.114;-1.684;2022-11-20T08:44:21;13.10;80.90
52575;DHT22;38468;48.114;-1.684;2022-11-20T08:46:24;12.80;79.70
52575;DHT22;38468;48.114;-1.684;2022-11-20T08:48:25;12.90;81.00
52575;DHT22;38468;48.114;-1.684;2022-11-20T08:50:26;13.00;80.00
52575;DHT22;38468;48.114;-1.684;2022-11-20T08:52:26;13.00;79.60
52575;DHT22;38468;48.114;-1.684;2022-11-20T08:54:27;13.20;79.80
52575;DHT22;38468;48.114;-1.684;2022-11-20T08:56:28;13.40;78.80
52575;DHT22;38468;48.114;-1.684;2022-11-20T08:58:28;13.50;78.70
52575;DHT22;38468;48.114;-1.684;2022-11-20T09:00:29;13.40;78.40
52575;DHT22;38468;48.114;-1.684;2022-11-20T09:02:30;13.50;78.30
52575;DHT22;38468;48.114;-1.684;2022-11-20T09:04:31;13.40;78.70
52575;DHT22;38468;48.114;-1.684;2022-11-20T09:06:31;13.60;78.70
52575;DHT22;38468;48.114;-1.684;2022-11-20T09:08:33;13.90;78.20
52575;DHT22;38468;48.114;-1.684;2022-11-20T09:10:34;14.10;77.00
52575;DHT22;38468;48.114;-1.684;2022-11-20T09:12:34;14.40;75.40
52575;DHT22;38468;48.114;-1.684;2022-11-20T09:14:35;14.60;75.30
52575;DHT22;38468;48.114;-1.684;2022-11-20T09:16:35;14.70;75.50
52575;DHT22;38468;48.114;-1.684;2022-11-20T09:18:37;15.20;75.10
52575;DHT22;38468;48.114;-1.684;2022-11-20T09:20:38;15.40;73.40
52575;DHT22;38468;48.114;-1.684;2022-11-20T09:22:39;15.50;73.70
52575;DHT22;38468;48.114;-1.684;2022-11-20T09:24:40;15.50;73.20
52575;DHT22;38468;48.114;-1.684;2022-11-20T09:26:41;15.90;70.80
52575;DHT22;38468;48.114;-1.684;2022-11-20T09:28:41;16.30;69.00
52575;DHT22;38468;48.114;-1.684;2022-11-20T09:30:42;16.20;68.00
52575;DHT22;38468;48.114;-1.684;2022-11-20T09:32:43;16.20;68.60
52575;DHT22;38468;48.114;-1.684;2022-11-20T09:34:43;16.40;69.20
52575;DHT22;38468;48.114;-1.684;2022-11-20T09:36:44;16.50;66.40
52575;DHT22;38468;48.114;-1.684;2022-11-20T09:38:46;16.40;66.90
52575;DHT22;38468;48.114;-1.684;2022-11-20T09:41:06;16.00;68.80
52575;DHT22;38468;48.114;-1.684;2022-11-20T09:43:15;16.20;68.50
52575;DHT22;38468;48.114;-1.684;2022-11-20T09:52:10;16.00;68.10
52575;DHT22;38468;48.114;-1.684;2022-11-20T09:54:19;16.10;68.00
52575;DHT22;38468;48.114;-1.684;2022-11-20T09:56:20;16.20;67.00
52575;DHT22;38468;48.114;-1.684;2022-11-20T09:58:47;16.50;66.90
52575;DHT22;38468;48.114;-1.684;2022-11-20T10:00:49;17.00;66.70
52575;DHT22;38468;48.114;-1.684;2022-11-20T10:07:52;16.20;65.90
52575;DHT22;38468;48.114;-1.684;2022-11-20T10:09:57;15.50;67.30
52575;DHT22;38468;48.114;-1.684;2022-11-20T10:21:55;14.90;70.60
52575;DHT22;38468;48.114;-1.684;2022-11-20T10:26:35;15.10;68.40
52575;DHT22;38468;48.114;-1.684;2022-11-20T10:31:14;14.90;69.20
52575;DHT22;38468;48.114;-1.684;2022-11-20T10:33:22;15.00;69.20
52575;DHT22;38468;48.114;-1.684;2022-11-20T10:36:21;15.00;69.10
52575;DHT22;38468;48.114;-1.684;2022-11-20T10:37:59;15.20;69.40
52575;DHT22;38468;48.114;-1.684;2022-11-20T10:40:20;15.00;69.20
52575;DHT22;38468;48.114;-1.684;2022-11-20T10:42:34;14.80;69.70
52575;DHT22;38468;48.114;-1.684;2022-11-20T10:44:43;14.90;69.80
52575;DHT22;38468;48.114;-1.684;2022-11-20T10:47:04;14.90;70.00
52575;DHT22;38468;48.114;-1.684;2022-11-20T10:49:14;14.90;70.50
52575;DHT22;38468;48.114;-1.684;2022-11-20T10:54:21;14.60;69.60
52575;DHT22;38468;48.114;-1.684;2022-11-20T10:56:48;14.50;70.20
52575;DHT22;38468;48.114;-1.684;2022-11-20T11:00:51;14.50;70.20
52575;DHT22;38468;48.114;-1.684;2022-11-20T11:02:55;14.60;70.30
52575;DHT22;38468;48.114;-1.684;2022-11-20T11:04:58;14.80;69.60
52575;DHT22;38468;48.114;-1.684;2022-11-20T11:09:21;15.10;69.50
52575;DHT22;38468;48.114;-1.684;2022-11-20T11:11:29;15.20;68.90
52575;DHT22;38468;48.114;-1.684;2022-11-20T11:13:34;15.50;68.80
52575;DHT22;38468;48.114;-1.684;2022-11-20T11:15:41;15.40;66.90
52575;DHT22;38468;48.114;-1.684;2022-11-20T11:17:47;15.30;68.70
52575;DHT22;38468;48.114;-1.684;2022-11-20T11:22:17;15.90;67.20
52575;DHT22;38468;48.114;-1.684;2022-11-20T11:24:24;16.20;66.20
52575;DHT22;38468;48.114;-1.684;2022-11-20T11:26:25;16.00;65.60
52575;DHT22;38468;48.114;-1.684;2022-11-20T11:28:31;16.30;65.90
52575;DHT22;38468;48.114;-1.684;2022-11-20T11:30:43;16.40;65.40
52575;DHT22;38468;48.114;-1.684;2022-11-20T11:32:44;17.00;64.80
52575;DHT22;38468;48.114;-1.684;2022-11-20T11:35:05;16.70;62.50
52575;DHT22;38468;48.114;-1.684;2022-11-20T11:37:21;16.40;64.70
52575;DHT22;38468;48.114;-1.684;2022-11-20T11:39:22;16.00;63.10
52575;DHT22;38468;48.114;-1.684;2022-11-20T11:41:25;15.50;64.60
52575;DHT22;38468;48.114;-1.684;2022-11-20T11:43:31;15.50;65.20
52575;DHT22;38468;48.114;-1.684;2022-11-20T11:45:58;15.70;65.40
52575;DHT22;38468;48.114;-1.684;2022-11-20T11:48:01;16.40;65.40
52575;DHT22;38468;48.114;-1.684;2022-11-20T11:52:15;18.00;61.10
52575;DHT22;38468;48.114;-1.684;2022-11-20T11:56:41;18.30;56.00
52575;DHT22;38468;48.114;-1.684;2022-11-20T12:03:35;18.60;56.80
52575;DHT22;38468;48.114;-1.684;2022-11-20T12:05:44;18.40;55.90
52575;DHT22;38468;48.114;-1.684;2022-11-20T12:07:49;18.60;55.70
52575;DHT22;38468;48.114;-1.684;2022-11-20T12:09:54;18.70;55.90
52575;DHT22;38468;48.114;-1.684;2022-11-20T12:12:24;18.50;57.40
52575;DHT22;38468;48.114;-1.684;2022-11-20T12:14:40;18.00;55.90
52575;DHT22;38468;48.114;-1.684;2022-11-20T12:16:46;17.70;54.80
52575;DHT22;38468;48.114;-1.684;2022-11-20T12:18:54;17.50;54.10
52575;DHT22;38468;48.114;-1.684;2022-11-20T12:25:36;18.70;54.80
52575;DHT22;38468;48.114;-1.684;2022-11-20T12:28:44;18.70;53.40
52575;DHT22;38468;48.114;-1.684;2022-11-20T12:30:19;18.50;51.70
52575;DHT22;38468;48.114;-1.684;2022-11-20T12:34:47;18.20;53.70
52575;DHT22;38468;48.114;-1.684;2022-11-20T12:36:58;18.20;53.30
52575;DHT22;38468;48.114;-1.684;2022-11-20T12:39:12;17.60;54.20
52575;DHT22;38468;48.114;-1.684;2022-11-20T12:46:44;18.30;53.70
52575;DHT22;38468;48.114;-1.684;2022-11-20T12:51:24;18.30;53.00
52575;DHT22;38468;48.114;-1.684;2022-11-20T12:58:03;19.40;52.70
52575;DHT22;38468;48.114;-1.684;2022-11-20T13:07:12;17.30;55.40
52575;DHT22;38468;48.114;-1.684;2022-11-20T13:09:15;16.70;56.20
52575;DHT22;38468;48.114;-1.684;2022-11-20T13:13:51;17.20;55.60
52575;DHT22;38468;48.114;-1.684;2022-11-20T13:16:10;17.40;56.50
52575;DHT22;38468;48.114;-1.684;2022-11-20T13:18:12;17.30;55.10
52575;DHT22;38468;48.114;-1.684;2022-11-20T13:20:16;17.80;55.30
52575;DHT22;38468;48.114;-1.684;2022-11-20T13:22:28;18.40;51.70
52575;DHT22;38468;48.114;-1.684;2022-11-20T13:24:31;18.30;52.30
52575;DHT22;38468;48.114;-1.684;2022-11-20T13:26:32;18.70;50.90
52575;DHT22;38468;48.114;-1.684;2022-11-20T13:28:33;19.30;50.90
52575;DHT22;38468;48.114;-1.684;2022-11-20T13:30:35;19.50;51.80
52575;DHT22;38468;48.114;-1.684;2022-11-20T13:32:36;19.60;49.70
52575;DHT22;38468;48.114;-1.684;2022-11-20T13:34:37;19.50;47.10
52575;DHT22;38468;48.114;-1.684;2022-11-20T13:36:49;19.00;49.70
52575;DHT22;38468;48.114;-1.684;2022-11-20T13:38:54;19.00;48.60
52575;DHT22;38468;48.114;-1.684;2022-11-20T13:40:58;19.40;47.80
52575;DHT22;38468;48.114;-1.684;2022-11-20T13:45:30;18.40;48.60
52575;DHT22;38468;48.114;-1.684;2022-11-20T13:47:31;17.40;49.90
52575;DHT22;38468;48.114;-1.684;2022-11-20T13:49:34;17.20;51.40
52575;DHT22;38468;48.114;-1.684;2022-11-20T13:51:48;17.20;50.70
52575;DHT22;38468;48.114;-1.684;2022-11-20T13:59:00;17.30;52.00
52575;DHT22;38468;48.114;-1.684;2022-11-20T14:01:11;18.30;50.40
52575;DHT22;38468;48.114;-1.684;2022-11-20T14:03:21;18.50;50.20
52575;DHT22;38468;48.114;-1.684;2022-11-20T14:05:23;17.70;50.50
52575;DHT22;38468;48.114;-1.684;2022-11-20T14:07:27;18.30;50.70
52575;DHT22;38468;48.114;-1.684;2022-11-20T14:09:33;18.40;49.20
52575;DHT22;38468;48.114;-1.684;2022-11-20T14:11:34;18.50;49.90
52575;DHT22;38468;48.114;-1.684;2022-11-20T14:13:35;18.20;49.20
52575;DHT22;38468;48.114;-1.684;2022-11-20T14:15:36;18.00;50.60
52575;DHT22;38468;48.114;-1.684;2022-11-20T14:17:39;17.90;49.80
52575;DHT22;38468;48.114;-1.684;2022-11-20T14:19:41;17.70;50.90